Time;durP1;ratioP1;P1;durP2;ratioP2;P2;SDS_P1;SDS_P2;PMS_P1;PMS_P2;Temp;Humidity;BMP_temperature;BMP_pressure;BME280_temperature;BME280_humidity;BME280_pressure;Samples;Min_cycle;Max_cycle;Signal;HPM_P1;HPM_P2
2022/02/27 00:00:13;;;;;;;15.55;7.22;;;;;;;;;;4973409;28;20054;-68
2022/02/27 00:02:43;;;;;;;17.48;6.88;;;;;;;;;;4972454;28;20051;-68
2022/02/27 00:05:10;;;;;;;15.07;6.82;;;;;;;;;;4972932;28;20051;-68
2022/02/27 00:07:36;;;;;;;12.45;6.82;;;;;;;;;;4973038;28;20051;-68
2022/02/27 00:10:05;;;;;;;18.02;8.52;;;;;;;;;;4984035;28;20054;-68
2022/02/27 00:12:31;;;;;;;17.77;6.85;;;;;;;;;;4992717;28;20050;-68
2022/02/27 00:14:58;;;;;;;15.32;5.90;;;;;;;;;;4993165;28;20050;-68
2022/02/27 00:17:24;;;;;;;18.75;6.43;;;;;;;;;;4992472;28;20054;-68
2022/02/27 00:19:51;;;;;;;17.50;7.50;;;;;;;;;;4992507;28;20465;-68
2022/02/27 00:22:18;;;;;;;18.00;7.00;;;;;;;;;;4992345;28;20054;-68
2022/02/27 00:24:45;;;;;;;11.63;5.38;;;;;;;;;;4992294;28;20493;-68
2022/02/27 00:27:14;;;;;;;18.38;5.78;;;;;;;;;;4980828;28;20057;-67
2022/02/27 00:29:40;;;;;;;14.77;5.53;;;;;;;;;;4973117;28;20403;-68
2022/02/27 00:32:07;;;;;;;14.52;5.03;;;;;;;;;;4972612;28;20058;-68
2022/02/27 00:34:34;;;;;;;17.38;5.18;;;;;;;;;;4973089;28;20080;-68
2022/02/27 00:37:01;;;;;;;16.00;5.60;;;;;;;;;;4973282;28;20086;-68
2022/02/27 00:39:27;;;;;;;12.57;5.07;;;;;;;;;;4983102;28;20050;-68
2022/02/27 00:41:54;;;;;;;13.10;5.18;;;;;;;;;;4992297;28;20093;-68
2022/02/27 00:44:20;;;;;;;12.77;4.32;;;;;;;;;;4992241;28;20093;-68
2022/02/27 00:46:47;;;;;;;11.70;3.83;;;;;;;;;;4991925;28;20073;-68
2022/02/27 00:49:14;;;;;;;7.93;3.45;;;;;;;;;;4992188;28;20050;-68
2022/02/27 00:51:41;;;;;;;9.25;3.85;;;;;;;;;;4991735;28;20096;-68
2022/02/27 00:54:07;;;;;;;14.18;4.18;;;;;;;;;;4991810;28;20120;-67
2022/02/27 00:56:36;;;;;;;11.23;4.28;;;;;;;;;;4992247;28;20465;-68
2022/02/27 00:59:03;;;;;;;9.70;3.55;;;;;;;;;;4992089;28;20101;-68
2022/02/27 01:01:32;;;;;;;9.82;3.70;;;;;;;;;;4991851;28;20517;-68
2022/02/27 01:03:59;;;;;;;8.98;3.95;;;;;;;;;;4992178;28;20051;-68
2022/02/27 01:06:25;;;;;;;10.63;3.72;;;;;;;;;;4992108;28;20113;-68
2022/02/27 01:08:53;;;;;;;16.48;4.18;;;;;;;;;;4978019;28;20050;-68
2022/02/27 01:11:19;;;;;;;11.25;3.85;;;;;;;;;;4972407;28;20054;-68
2022/02/27 01:13:46;;;;;;;12.73;3.95;;;;;;;;;;4972559;28;20191;-68
2022/02/27 01:16:13;;;;;;;11.85;4.10;;;;;;;;;;4972548;28;20046;-68
2022/02/27 01:18:39;;;;;;;13.75;4.55;;;;;;;;;;4973672;28;20133;-68
2022/02/27 01:21:06;;;;;;;11.07;3.33;;;;;;;;;;4979561;28;20564;-68
2022/02/27 01:23:32;;;;;;;6.43;2.92;;;;;;;;;;4988090;28;20556;-68
2022/02/27 01:25:59;;;;;;;12.50;3.22;;;;;;;;;;4976224;28;20098;-68
2022/02/27 01:28:25;;;;;;;9.10;2.95;;;;;;;;;;4975912;28;20565;-68
2022/02/27 01:30:54;;;;;;;14.10;3.75;;;;;;;;;;4976154;28;20089;-68
2022/02/27 01:33:20;;;;;;;11.68;3.90;;;;;;;;;;4976035;28;20050;-68
2022/02/27 01:35:47;;;;;;;17.20;3.85;;;;;;;;;;4984277;28;20125;-68
2022/02/27 01:38:13;;;;;;;11.18;3.45;;;;;;;;;;4995363;28;20101;-68
2022/02/27 01:40:40;;;;;;;14.15;3.97;;;;;;;;;;4995739;28;20050;-68
2022/02/27 01:43:07;;;;;;;11.52;3.83;;;;;;;;;;4995382;28;20455;-68
2022/02/27 01:45:33;;;;;;;15.82;4.43;;;;;;;;;;4994948;28;20100;-68
2022/02/27 01:48:00;;;;;;;11.13;3.70;;;;;;;;;;4994706;28;20421;-68
2022/02/27 01:50:26;;;;;;;12.30;3.53;;;;;;;;;;4995199;28;20046;-68
2022/02/27 01:52:53;;;;;;;9.88;4.03;;;;;;;;;;4995336;28;20485;-68
2022/02/27 01:55:20;;;;;;;11.55;4.20;;;;;;;;;;4994951;28;20465;-68
2022/02/27 01:57:46;;;;;;;12.48;3.75;;;;;;;;;;4995237;28;20058;-68
2022/02/27 02:00:14;;;;;;;15.27;4.90;;;;;;;;;;4995361;28;20105;-68
2022/02/27 02:02:43;;;;;;;7.30;3.78;;;;;;;;;;4987468;28;20053;-68
2022/02/27 02:05:10;;;;;;;11.95;4.43;;;;;;;;;;4975458;28;20051;-68
2022/02/27 02:07:36;;;;;;;12.18;4.45;;;;;;;;;;4975350;28;20490;-68
2022/02/27 02:10:03;;;;;;;10.68;4.20;;;;;;;;;;4975115;28;20059;-68
2022/02/27 02:12:30;;;;;;;10.23;3.42;;;;;;;;;;4975511;28;20086;-67
2022/02/27 02:14:56;;;;;;;14.77;4.47;;;;;;;;;;4958038;28;20078;-67
2022/02/27 02:17:23;;;;;;;10.45;4.32;;;;;;;;;;4975232;28;20051;-67
2022/02/27 02:19:54;;;;;;;9.38;4.18;;;;;;;;;;4990117;28;20426;-67
2022/02/27 02:22:21;;;;;;;14.43;4.30;;;;;;;;;;4994337;28;20050;-67
2022/02/27 02:24:48;;;;;;;12.85;4.28;;;;;;;;;;4994243;28;20054;-67
2022/02/27 02:27:15;;;;;;;9.85;4.05;;;;;;;;;;4994457;28;20552;-68
2022/02/27 02:29:41;;;;;;;12.98;3.83;;;;;;;;;;4994605;28;20112;-68
2022/02/27 02:32:08;;;;;;;15.18;4.53;;;;;;;;;;4994164;28;20501;-68
2022/02/27 02:34:35;;;;;;;10.45;4.30;;;;;;;;;;4979319;28;20047;-68
2022/02/27 02:37:01;;;;;;;8.65;4.57;;;;;;;;;;4974874;28;20192;-68
2022/02/27 02:39:29;;;;;;;13.45;4.55;;;;;;;;;;4974887;28;20047;-68
2022/02/27 02:41:57;;;;;;;15.18;4.95;;;;;;;;;;4974615;28;20055;-68
2022/02/27 02:44:25;;;;;;;13.32;5.57;;;;;;;;;;4974555;28;20046;-68
2022/02/27 02:46:51;;;;;;;10.95;4.50;;;;;;;;;;4974376;28;20101;-68
2022/02/27 02:49:18;;;;;;;13.75;4.13;;;;;;;;;;4974644;28;20051;-68
2022/02/27 02:51:45;;;;;;;15.00;4.03;;;;;;;;;;4974363;28;20055;-68
2022/02/27 02:54:11;;;;;;;10.23;4.63;;;;;;;;;;4974754;28;20051;-68
2022/02/27 02:56:38;;;;;;;13.23;4.80;;;;;;;;;;4974596;28;20323;-68
2022/02/27 02:59:05;;;;;;;17.23;3.92;;;;;;;;;;4973523;28;20046;-68
2022/02/27 03:01:31;;;;;;;13.63;3.85;;;;;;;;;;4974059;28;20564;-68
2022/02/27 03:04:02;;;;;;;14.50;4.30;;;;;;;;;;4974299;28;20410;-68
2022/02/27 03:06:30;;;;;;;9.27;3.92;;;;;;;;;;4974250;28;20074;-68
2022/02/27 03:08:57;;;;;;;14.70;4.70;;;;;;;;;;4974452;28;20051;-68
2022/02/27 03:11:23;;;;;;;12.23;4.13;;;;;;;;;;4974079;28;20117;-68
2022/02/27 03:13:50;;;;;;;9.20;3.90;;;;;;;;;;4974746;28;20102;-68
2022/02/27 03:16:17;;;;;;;12.93;4.07;;;;;;;;;;4973927;28;20109;-68
2022/02/27 03:18:44;;;;;;;13.15;3.58;;;;;;;;;;4973903;28;20554;-68
2022/02/27 03:21:11;;;;;;;10.13;3.88;;;;;;;;;;4974129;28;20051;-68
2022/02/27 03:23:37;;;;;;;12.88;4.57;;;;;;;;;;4974084;28;20113;-68
2022/02/27 03:26:06;;;;;;;16.33;4.28;;;;;;;;;;4973692;28;20074;-68
2022/02/27 03:28:33;;;;;;;14.73;3.97;;;;;;;;;;4988815;28;20117;-68
2022/02/27 03:31:00;;;;;;;13.80;4.80;;;;;;;;;;4992899;28;20564;-68
2022/02/27 03:33:26;;;;;;;10.38;3.65;;;;;;;;;;4993121;28;20054;-68
2022/02/27 03:35:53;;;;;;;12.02;3.70;;;;;;;;;;4986179;28;20635;-67
2022/02/27 03:38:19;;;;;;;9.98;4.55;;;;;;;;;;4973693;28;20047;-67
2022/02/27 03:40:46;;;;;;;14.57;3.65;;;;;;;;;;4973289;28;20050;-68
2022/02/27 03:43:13;;;;;;;13.15;3.80;;;;;;;;;;4973582;28;20046;-68
2022/02/27 03:45:40;;;;;;;8.27;3.88;;;;;;;;;;4973365;28;20461;-68
2022/02/27 03:48:06;;;;;;;10.90;4.47;;;;;;;;;;4973961;28;20050;-68
2022/02/27 03:50:33;;;;;;;9.80;3.75;;;;;;;;;;4973302;28;20078;-68
2022/02/27 03:52:59;;;;;;;9.57;4.18;;;;;;;;;;4973320;28;20116;-68
2022/02/27 03:55:26;;;;;;;6.13;3.40;;;;;;;;;;4987365;28;20456;-68
2022/02/27 03:57:52;;;;;;;9.02;3.78;;;;;;;;;;4992671;28;20489;-68
2022/02/27 04:00:19;;;;;;;10.00;3.75;;;;;;;;;;4992645;28;20086;-68
2022/02/27 04:02:46;;;;;;;11.20;3.88;;;;;;;;;;4992587;28;20521;-68
2022/02/27 04:05:14;;;;;;;8.60;4.20;;;;;;;;;;4992778;28;20050;-68
2022/02/27 04:07:41;;;;;;;12.27;4.03;;;;;;;;;;4992789;28;20418;-68
2022/02/27 04:10:08;;;;;;;12.02;3.95;;;;;;;;;;4974011;28;20051;-68
2022/02/27 04:12:35;;;;;;;11.98;4.55;;;;;;;;;;4973126;28;20055;-68
2022/02/27 04:15:03;;;;;;;13.02;4.05;;;;;;;;;;4973592;28;20043;-68
2022/02/27 04:17:31;;;;;;;14.52;4.50;;;;;;;;;;4973048;28;20070;-68
2022/02/27 04:19:58;;;;;;;17.23;4.30;;;;;;;;;;4973223;28;20054;-68
2022/02/27 04:22:28;;;;;;;13.35;4.50;;;;;;;;;;4972929;28;20475;-68
2022/02/27 04:24:54;;;;;;;12.32;4.25;;;;;;;;;;4972829;28;20047;-68
2022/02/27 04:27:21;;;;;;;16.05;4.82;;;;;;;;;;4971885;28;20050;-67
2022/02/27 04:29:48;;;;;;;7.63;4.45;;;;;;;;;;4972718;28;20561;-68
2022/02/27 04:32:15;;;;;;;14.18;4.20;;;;;;;;;;4998864;23;20038;-64
2022/02/27 04:34:42;;;;;;;13.60;5.13;;;;;;;;;;4992307;28;20096;-65
2022/02/27 04:37:08;;;;;;;12.80;4.40;;;;;;;;;;4990942;28;20050;-66
2022/02/27 04:39:36;;;;;;;8.65;4.20;;;;;;;;;;4992243;28;20129;-67
2022/02/27 04:42:03;;;;;;;10.82;3.97;;;;;;;;;;4974885;28;20054;-66
2022/02/27 04:44:30;;;;;;;14.48;4.93;;;;;;;;;;4983497;28;20571;-66
2022/02/27 04:46:57;;;;;;;9.32;4.35;;;;;;;;;;4979548;28;20103;-66
2022/02/27 04:49:25;;;;;;;12.60;4.35;;;;;;;;;;4981067;28;20558;-66
2022/02/27 04:51:52;;;;;;;14.27;5.25;;;;;;;;;;4982463;28;20046;-66
2022/02/27 04:54:19;;;;;;;13.18;5.05;;;;;;;;;;4986578;28;20057;-66
2022/02/27 04:56:46;;;;;;;12.38;4.22;;;;;;;;;;4993211;28;20054;-65
2022/02/27 04:59:13;;;;;;;11.63;4.78;;;;;;;;;;4996147;28;20050;-66
2022/02/27 05:01:40;;;;;;;16.30;4.88;;;;;;;;;;4985070;28;20046;-66
2022/02/27 05:04:06;;;;;;;12.55;4.28;;;;;;;;;;4975523;28;20058;-66
2022/02/27 05:06:36;;;;;;;13.25;4.78;;;;;;;;;;4981978;28;20062;-65
2022/02/27 05:09:02;;;;;;;9.07;4.40;;;;;;;;;;4984740;28;20050;-66
2022/02/27 05:11:29;;;;;;;13.77;5.53;;;;;;;;;;4988122;28;20061;-65
2022/02/27 05:13:56;;;;;;;16.00;5.53;;;;;;;;;;4986251;28;20046;-66
2022/02/27 05:16:22;;;;;;;15.38;4.57;;;;;;;;;;4983006;28;20046;-66
2022/02/27 05:18:49;;;;;;;13.05;4.45;;;;;;;;;;4991944;28;20061;-65
2022/02/27 05:21:15;;;;;;;12.75;4.95;;;;;;;;;;4994046;28;20493;-65
2022/02/27 05:23:42;;;;;;;10.55;5.43;;;;;;;;;;4985618;28;20395;-65
2022/02/27 05:26:09;;;;;;;11.60;4.53;;;;;;;;;;4984438;28;20093;-65
2022/02/27 05:28:35;;;;;;;14.10;5.45;;;;;;;;;;4991423;28;20097;-66
2022/02/27 05:31:02;;;;;;;10.15;3.95;;;;;;;;;;4994029;28;20050;-65
2022/02/27 05:33:28;;;;;;;15.05;4.95;;;;;;;;;;4995243;28;20567;-66
2022/02/27 05:35:55;;;;;;;10.52;5.05;;;;;;;;;;4995240;28;20450;-66
2022/02/27 05:38:22;;;;;;;10.48;4.80;;;;;;;;;;4995578;28;20433;-66
2022/02/27 05:40:48;;;;;;;13.10;4.45;;;;;;;;;;4994026;28;20100;-66
2022/02/27 05:43:15;;;;;;;17.00;6.38;;;;;;;;;;4995412;28;20089;-66
2022/02/27 05:45:41;;;;;;;10.35;5.05;;;;;;;;;;4995175;28;20042;-66
2022/02/27 05:48:08;;;;;;;13.15;5.15;;;;;;;;;;4993846;28;20050;-66
2022/02/27 05:50:35;;;;;;;15.95;5.57;;;;;;;;;;4994855;28;20050;-66
2022/02/27 05:53:01;;;;;;;11.07;5.10;;;;;;;;;;4985333;28;20055;-66
2022/02/27 05:55:28;;;;;;;13.90;4.93;;;;;;;;;;4988280;28;20089;-67
2022/02/27 05:57:59;;;;;;;14.15;5.15;;;;;;;;;;4995062;28;20101;-65
2022/02/27 06:00:26;;;;;;;8.95;4.55;;;;;;;;;;4993565;28;20050;-66
2022/02/27 06:02:53;;;;;;;11.73;5.30;;;;;;;;;;4993701;28;20105;-66
2022/02/27 06:05:20;;;;;;;12.40;5.32;;;;;;;;;;4992881;28;20129;-66
2022/02/27 06:07:47;;;;;;;15.82;4.90;;;;;;;;;;4994940;28;20054;-66
2022/02/27 06:10:13;;;;;;;15.43;5.32;;;;;;;;;;4993542;28;20050;-66
2022/02/27 06:12:50;;;;;;;11.55;5.40;;;;;;;;;;4994705;28;20094;-66
2022/02/27 06:15:17;;;;;;;14.02;5.90;;;;;;;;;;4993558;28;20050;-65
2022/02/27 06:17:43;;;;;;;13.50;5.30;;;;;;;;;;4994518;28;20054;-66
2022/02/27 06:20:11;;;;;;;13.82;5.20;;;;;;;;;;4993157;28;20533;-66
2022/02/27 06:22:40;;;;;;;18.42;5.90;;;;;;;;;;4973937;28;20113;-65
2022/02/27 06:25:07;;;;;;;14.55;5.93;;;;;;;;;;4973961;28;20050;-65
2022/02/27 06:27:33;;;;;;;13.98;6.13;;;;;;;;;;4974920;28;20043;-66
2022/02/27 06:30:00;;;;;;;14.40;5.07;;;;;;;;;;4974913;28;20106;-66
2022/02/27 06:32:27;;;;;;;12.10;6.40;;;;;;;;;;4973578;28;20101;-67
2022/02/27 06:34:53;;;;;;;16.50;5.65;;;;;;;;;;4986158;28;20050;-66
2022/02/27 06:37:20;;;;;;;15.30;5.80;;;;;;;;;;4998549;28;20046;-66
2022/02/27 06:39:46;;;;;;;13.85;5.53;;;;;;;;;;4994569;28;20054;-66
2022/02/27 06:42:14;;;;;;;12.63;5.53;;;;;;;;;;4994308;28;20055;-65
2022/02/27 06:44:40;;;;;;;13.77;6.22;;;;;;;;;;4994272;28;20050;-66
2022/02/27 06:47:08;;;;;;;8.40;4.70;;;;;;;;;;4989102;28;20043;-66
2022/02/27 06:49:35;;;;;;;12.38;5.68;;;;;;;;;;4974664;28;20055;-66
2022/02/27 06:52:02;;;;;;;14.88;5.47;;;;;;;;;;4974437;28;20051;-65
2022/02/27 06:54:29;;;;;;;12.93;5.55;;;;;;;;;;4974809;28;20105;-65
2022/02/27 06:56:55;;;;;;;9.95;6.32;;;;;;;;;;4974448;28;20050;-66
2022/02/27 06:59:22;;;;;;;13.20;5.97;;;;;;;;;;4974484;28;20062;-66
2022/02/27 07:01:48;;;;;;;12.82;5.35;;;;;;;;;;4974458;28;20059;-65
2022/02/27 07:04:15;;;;;;;13.65;5.55;;;;;;;;;;4974614;28;20054;-66
2022/02/27 07:06:42;;;;;;;15.90;6.10;;;;;;;;;;4974146;28;20048;-66
2022/02/27 07:09:08;;;;;;;15.38;6.60;;;;;;;;;;4974128;28;20102;-65
2022/02/27 07:11:35;;;;;;;13.52;5.53;;;;;;;;;;4972966;28;20078;-65
2022/02/27 07:14:01;;;;;;;11.07;5.60;;;;;;;;;;4973057;28;20051;-66
2022/02/27 07:16:28;;;;;;;13.95;6.25;;;;;;;;;;4991003;28;20116;-67
2022/02/27 07:18:57;;;;;;;12.93;6.20;;;;;;;;;;4993523;28;20414;-66
2022/02/27 07:21:24;;;;;;;13.52;6.40;;;;;;;;;;4993300;28;20046;-66
2022/02/27 07:23:50;;;;;;;13.85;6.40;;;;;;;;;;4992142;28;20472;-64
2022/02/27 07:26:17;;;;;;;18.05;6.25;;;;;;;;;;4993255;28;20050;-65
2022/02/27 07:28:44;;;;;;;14.15;6.75;;;;;;;;;;4990998;28;20047;-65
2022/02/27 07:31:10;;;;;;;12.68;6.70;;;;;;;;;;4990461;28;20584;-66
2022/02/27 07:33:37;;;;;;;16.58;6.90;;;;;;;;;;4990830;28;20054;-65
2022/02/27 07:36:04;;;;;;;15.32;6.43;;;;;;;;;;4990683;28;20054;-66
2022/02/27 07:38:31;;;;;;;14.90;6.43;;;;;;;;;;4991064;28;20050;-66
2022/02/27 07:40:57;;;;;;;13.40;6.00;;;;;;;;;;4986442;28;20054;-66
2022/02/27 07:43:24;;;;;;;15.32;7.32;;;;;;;;;;4971398;28;20050;-66
2022/02/27 07:45:50;;;;;;;10.45;7.30;;;;;;;;;;4971708;28;20063;-67
2022/02/27 07:48:17;;;;;;;12.02;6.53;;;;;;;;;;4971872;28;20066;-65
2022/02/27 07:50:44;;;;;;;11.38;6.07;;;;;;;;;;4971852;28;20406;-67
2022/02/27 07:53:11;;;;;;;15.15;6.35;;;;;;;;;;4954426;28;20055;-67
2022/02/27 07:55:37;;;;;;;14.10;5.78;;;;;;;;;;4978510;28;20537;-66
2022/02/27 07:58:04;;;;;;;13.30;6.45;;;;;;;;;;4991084;28;20061;-66
2022/02/27 08:00:31;;;;;;;11.77;6.35;;;;;;;;;;4990777;28;20050;-66
2022/02/27 08:02:57;;;;;;;12.13;6.15;;;;;;;;;;4991029;28;20141;-66
2022/02/27 08:05:24;;;;;;;10.02;6.38;;;;;;;;;;4990663;28;20054;-65
2022/02/27 08:07:55;;;;;;;13.52;6.40;;;;;;;;;;4987356;28;20445;-66
2022/02/27 08:10:21;;;;;;;10.07;6.18;;;;;;;;;;4970874;28;20059;-66
2022/02/27 08:12:48;;;;;;;13.38;6.85;;;;;;;;;;4971060;28;20497;-65
2022/02/27 08:15:16;;;;;;;13.52;6.40;;;;;;;;;;4971687;28;20125;-66
2022/02/27 08:17:43;;;;;;;12.80;6.80;;;;;;;;;;4971362;28;20051;-66
2022/02/27 08:20:10;;;;;;;13.57;5.93;;;;;;;;;;4969491;28;20383;-66
2022/02/27 08:22:37;;;;;;;15.00;6.80;;;;;;;;;;4970989;28;20107;-66
2022/02/27 08:25:05;;;;;;;12.55;6.10;;;;;;;;;;4970967;28;20050;-67
2022/02/27 08:27:34;;;;;;;12.30;5.70;;;;;;;;;;4970968;28;20046;-67
2022/02/27 08:30:00;;;;;;;13.75;6.78;;;;;;;;;;4969615;28;20497;-66
2022/02/27 08:32:27;;;;;;;15.82;7.80;;;;;;;;;;4970757;28;20059;-66
2022/02/27 08:34:53;;;;;;;10.30;6.20;;;;;;;;;;4970502;28;20059;-67
2022/02/27 08:37:20;;;;;;;11.13;6.15;;;;;;;;;;4970799;28;20051;-67
2022/02/27 08:39:47;;;;;;;14.48;7.15;;;;;;;;;;4971160;28;20392;-66
2022/02/27 08:42:14;;;;;;;11.55;5.60;;;;;;;;;;4970577;28;20078;-66
2022/02/27 08:44:40;;;;;;;12.38;6.05;;;;;;;;;;4971105;28;20473;-67
2022/02/27 08:47:07;;;;;;;10.38;5.85;;;;;;;;;;4970353;28;20051;-66
2022/02/27 08:49:34;;;;;;;10.90;5.65;;;;;;;;;;4973278;28;20138;-66
2022/02/27 08:52:01;;;;;;;9.00;5.80;;;;;;;;;;4988582;28;20493;-66
2022/02/27 08:54:27;;;;;;;12.70;6.47;;;;;;;;;;4973049;28;20081;-66
2022/02/27 08:56:54;;;;;;;9.48;5.82;;;;;;;;;;4973072;28;20097;-65
2022/02/27 08:59:21;;;;;;;11.32;5.55;;;;;;;;;;4988393;28;20058;-67
2022/02/27 09:01:47;;;;;;;8.95;4.82;;;;;;;;;;4986158;28;20114;-67
2022/02/27 09:04:14;;;;;;;10.40;5.88;;;;;;;;;;4969497;28;20105;-67
2022/02/27 09:06:41;;;;;;;8.95;4.70;;;;;;;;;;4972158;28;20051;-67
2022/02/27 09:09:07;;;;;;;11.13;6.03;;;;;;;;;;4977928;28;20063;-66
2022/02/27 09:11:34;;;;;;;13.75;6.28;;;;;;;;;;4979898;28;20050;-67
2022/02/27 09:14:00;;;;;;;12.48;6.10;;;;;;;;;;4977207;28;20517;-67
2022/02/27 09:16:27;;;;;;;8.85;4.85;;;;;;;;;;4978852;28;20410;-67
2022/02/27 09:18:55;;;;;;;7.53;4.85;;;;;;;;;;4989943;28;20117;-67
2022/02/27 09:21:21;;;;;;;10.32;5.00;;;;;;;;;;4989593;28;20058;-67
2022/02/27 09:23:48;;;;;;;14.25;5.10;;;;;;;;;;4989978;28;20053;-66
2022/02/27 09:26:15;;;;;;;12.90;5.13;;;;;;;;;;4989489;28;20050;-67
2022/02/27 09:28:55;;;;;;;9.32;4.82;;;;;;;;;;4989776;28;20104;-68
2022/02/27 09:31:22;;;;;;;7.00;4.45;;;;;;;;;;4979330;28;20062;-66
2022/02/27 09:33:49;;;;;;;8.00;4.30;;;;;;;;;;4981393;28;20055;-66
2022/02/27 09:36:15;;;;;;;8.77;4.68;;;;;;;;;;4981865;28;20047;-66
2022/02/27 09:38:43;;;;;;;12.73;6.57;;;;;;;;;;4975330;28;20575;-65
2022/02/27 09:41:09;;;;;;;6.63;4.72;;;;;;;;;;4982270;28;20093;-66
2022/02/27 09:43:37;;;;;;;7.95;4.28;;;;;;;;;;4980738;28;20058;-67
2022/02/27 09:46:04;;;;;;;7.53;4.47;;;;;;;;;;4985692;28;20074;-66
2022/02/27 09:48:30;;;;;;;7.68;3.75;;;;;;;;;;5006785;28;20057;-66
2022/02/27 09:50:57;;;;;;;5.78;3.90;;;;;;;;;;5001240;28;20078;-66
2022/02/27 09:53:23;;;;;;;8.60;3.58;;;;;;;;;;4997769;28;20051;-66
2022/02/27 09:55:50;;;;;;;5.97;3.33;;;;;;;;;;4998776;28;20047;-66
2022/02/27 09:58:17;;;;;;;6.07;3.33;;;;;;;;;;4996655;28;20074;-67
2022/02/27 10:00:43;;;;;;;5.78;4.28;;;;;;;;;;4999036;28;20054;-65
2022/02/27 10:03:12;;;;;;;4.63;3.50;;;;;;;;;;5004287;28;20113;-67
2022/02/27 10:05:40;;;;;;;6.78;3.90;;;;;;;;;;5001203;28;20119;-66
2022/02/27 10:08:08;;;;;;;5.95;3.58;;;;;;;;;;5005436;28;20062;-66
2022/02/27 10:10:35;;;;;;;8.38;3.67;;;;;;;;;;5001024;28;20077;-66
2022/02/27 10:13:03;;;;;;;4.30;3.10;;;;;;;;;;4999357;28;20057;-65
2022/02/27 10:15:30;;;;;;;6.15;3.33;;;;;;;;;;4998373;28;20623;-66
2022/02/27 10:17:56;;;;;;;4.82;3.17;;;;;;;;;;5005372;28;20112;-66
2022/02/27 10:20:25;;;;;;;6.82;3.17;;;;;;;;;;4984299;28;20097;-66
2022/02/27 10:22:55;;;;;;;6.28;3.38;;;;;;;;;;4994825;28;20109;-66
2022/02/27 10:25:27;;;;;;;8.00;3.95;;;;;;;;;;5001962;28;20058;-65
2022/02/27 10:28:03;;;;;;;5.65;2.88;;;;;;;;;;5002562;28;20040;-66
2022/02/27 10:30:32;;;;;;;8.48;3.63;;;;;;;;;;5002130;28;20069;-66
2022/02/27 10:33:13;;;;;;;3.53;2.80;;;;;;;;;;5002592;23;20081;-67
2022/02/27 10:35:44;;;;;;;7.32;4.20;;;;;;;;;;4983066;28;20043;-66
2022/02/27 10:41:14;;;;;;;5.85;3.10;;;;;;;;;;4993458;28;20060;-66
2022/02/27 10:43:44;;;;;;;3.85;2.92;;;;;;;;;;4979807;28;20086;-66
2022/02/27 10:46:12;;;;;;;8.43;2.88;;;;;;;;;;4982643;28;20051;-67
2022/02/27 10:48:39;;;;;;;3.90;2.65;;;;;;;;;;4981908;28;20045;-65
2022/02/27 10:51:08;;;;;;;5.45;3.00;;;;;;;;;;4979434;28;20085;-66
2022/02/27 10:53:36;;;;;;;6.10;2.75;;;;;;;;;;4981894;28;20074;-65
2022/02/27 10:56:08;;;;;;;3.85;2.20;;;;;;;;;;4979846;28;20057;-65
2022/02/27 10:58:45;;;;;;;4.13;2.20;;;;;;;;;;4983223;28;20504;-64
2022/02/27 11:01:23;;;;;;;3.45;2.45;;;;;;;;;;4980600;28;20382;-64
2022/02/27 11:03:55;;;;;;;4.90;3.40;;;;;;;;;;4979900;28;20078;-66
2022/02/27 11:06:22;;;;;;;4.72;2.42;;;;;;;;;;4981186;28;20054;-62
2022/02/27 11:08:49;;;;;;;3.25;2.28;;;;;;;;;;4980055;28;20102;-61
2022/02/27 11:11:16;;;;;;;4.88;2.33;;;;;;;;;;4980860;28;20103;-63
2022/02/27 11:13:46;;;;;;;4.72;2.80;;;;;;;;;;4978638;28;20050;-63
2022/02/27 11:16:13;;;;;;;6.40;3.10;;;;;;;;;;4979809;28;20050;-66
2022/02/27 11:18:40;;;;;;;4.28;2.70;;;;;;;;;;4981216;28;20153;-65
2022/02/27 11:21:08;;;;;;;6.30;3.10;;;;;;;;;;4976925;28;20414;-66
2022/02/27 11:23:36;;;;;;;9.48;3.25;;;;;;;;;;4979543;28;20055;-65
2022/02/27 11:26:03;;;;;;;4.28;2.45;;;;;;;;;;4981456;28;20051;-65
2022/02/27 11:28:30;;;;;;;4.38;2.80;;;;;;;;;;4978418;28;20375;-66
2022/02/27 11:31:02;;;;;;;6.30;3.03;;;;;;;;;;4960050;28;20063;-65
2022/02/27 11:33:29;;;;;;;4.32;2.45;;;;;;;;;;4980072;28;20054;-64
2022/02/27 11:35:56;;;;;;;5.03;2.70;;;;;;;;;;4976219;28;20047;-66
2022/02/27 11:38:28;;;;;;;4.70;3.45;;;;;;;;;;4977301;28;20893;-64
2022/02/27 11:40:56;;;;;;;4.38;2.80;;;;;;;;;;4978551;28;20046;-66
2022/02/27 11:43:42;;;;;;;7.75;2.42;;;;;;;;;;4976942;28;20063;-65
2022/02/27 11:46:13;;;;;;;4.80;2.67;;;;;;;;;;4983330;28;20050;-64
2022/02/27 11:48:57;;;;;;;5.95;2.80;;;;;;;;;;4977959;28;20348;-65
2022/02/27 11:51:41;;;;;;;5.15;2.83;;;;;;;;;;4976816;28;20062;-64
2022/02/27 11:54:12;;;;;;;4.63;2.20;;;;;;;;;;4976337;28;20047;-65
2022/02/27 11:56:41;;;;;;;5.60;2.90;;;;;;;;;;4978437;28;20053;-65
2022/02/27 11:59:09;;;;;;;4.20;2.53;;;;;;;;;;4976905;28;20461;-66
2022/02/27 12:01:48;;;;;;;3.60;2.30;;;;;;;;;;4975299;28;20153;-65
2022/02/27 12:04:20;;;;;;;4.20;2.92;;;;;;;;;;4980542;28;20065;-66
2022/02/27 12:07:05;;;;;;;3.55;2.63;;;;;;;;;;4977275;28;20054;-65
2022/02/27 12:09:47;;;;;;;6.28;3.08;;;;;;;;;;4978810;28;20502;-66
2022/02/27 12:12:34;;;;;;;4.78;2.83;;;;;;;;;;4977410;28;20183;-66
2022/02/27 12:15:24;;;;;;;7.25;2.90;;;;;;;;;;4979047;28;20046;-66
2022/02/27 12:18:04;;;;;;;7.50;2.85;;;;;;;;;;4977951;28;20046;-65
2022/02/27 12:20:58;;;;;;;3.80;2.35;;;;;;;;;;4980923;28;20046;-68
2022/02/27 12:23:27;;;;;;;4.88;2.88;;;;;;;;;;4980916;28;20062;-66
2022/02/27 12:25:59;;;;;;;4.35;3.47;;;;;;;;;;4976477;28;20339;-66
2022/02/27 12:28:44;;;;;;;4.28;2.53;;;;;;;;;;4977473;28;20046;-67
2022/02/27 12:31:15;;;;;;;5.93;3.40;;;;;;;;;;4977852;28;20093;-67
2022/02/27 12:33:42;;;;;;;5.18;3.28;;;;;;;;;;4974280;28;20497;-68
2022/02/27 12:36:24;;;;;;;4.43;2.50;;;;;;;;;;4977491;28;20370;-68
2022/02/27 12:38:56;;;;;;;3.85;2.88;;;;;;;;;;4977284;28;20457;-68
2022/02/27 12:41:22;;;;;;;5.97;2.70;;;;;;;;;;4974563;28;20059;-68
2022/02/27 12:43:49;;;;;;;4.18;2.30;;;;;;;;;;4960721;28;20497;-68
2022/02/27 12:46:16;;;;;;;6.43;3.03;;;;;;;;;;4975772;28;20043;-68
2022/02/27 12:51:32;;;;;;;6.47;3.30;;;;;;;;;;4973917;28;20461;-68
2022/02/27 12:53:59;;;;;;;4.63;2.42;;;;;;;;;;4975267;28;20070;-67
2022/02/27 12:56:28;;;;;;;4.18;2.25;;;;;;;;;;4975497;28;20390;-67
2022/02/27 12:58:55;;;;;;;3.85;2.30;;;;;;;;;;4975249;28;20062;-67
2022/02/27 13:01:32;;;;;;;6.40;2.80;;;;;;;;;;4977415;28;20050;-67
2022/02/27 13:04:08;;;;;;;3.35;2.33;;;;;;;;;;4976773;28;20173;-71
2022/02/27 13:06:36;;;;;;;3.92;2.22;;;;;;;;;;4971507;28;20128;-72
2022/02/27 13:09:04;;;;;;;6.70;2.55;;;;;;;;;;4978087;28;20050;-68
2022/02/27 13:11:47;;;;;;;6.22;2.70;;;;;;;;;;4979192;28;20047;-73
2022/02/27 13:14:14;;;;;;;2.42;2.20;;;;;;;;;;4979836;28;20057;-73
2022/02/27 13:16:41;;;;;;;3.22;2.47;;;;;;;;;;4980404;28;20046;-72
2022/02/27 13:19:30;;;;;;;3.15;2.63;;;;;;;;;;4981293;28;20035;-73
2022/02/27 13:21:57;;;;;;;3.97;2.25;;;;;;;;;;4983722;28;20142;-71
2022/02/27 13:24:36;;;;;;;5.03;2.38;;;;;;;;;;4983972;28;20047;-73
2022/02/27 13:27:09;;;;;;;3.75;2.17;;;;;;;;;;4981042;28;20086;-72
2022/02/27 13:29:54;;;;;;;4.30;2.58;;;;;;;;;;4979823;28;20047;-75
2022/02/27 13:32:42;;;;;;;3.88;2.40;;;;;;;;;;4991419;28;20453;-75
2022/02/27 13:35:51;;;;;;;4.15;2.05;;;;;;;;;;4980966;28;20053;-74
2022/02/27 13:38:22;;;;;;;2.97;2.25;;;;;;;;;;4984433;28;20507;-73
2022/02/27 13:41:37;;;;;;;5.05;2.70;;;;;;;;;;4982860;28;20596;-74
2022/02/27 13:44:08;;;;;;;5.05;2.53;;;;;;;;;;4948271;28;20111;-70
2022/02/27 13:46:39;;;;;;;3.78;2.53;;;;;;;;;;4951641;28;20054;-67
2022/02/27 13:49:11;;;;;;;4.38;2.60;;;;;;;;;;4980481;28;20050;-66
2022/02/27 13:51:40;;;;;;;3.78;2.70;;;;;;;;;;4990453;28;20050;-66
2022/02/27 13:54:20;;;;;;;5.30;2.42;;;;;;;;;;4980909;28;20062;-67
2022/02/27 13:56:59;;;;;;;2.08;1.88;;;;;;;;;;4982978;28;20097;-67
2022/02/27 13:59:26;;;;;;;2.90;2.10;;;;;;;;;;4983829;28;20488;-67
2022/02/27 14:01:59;;;;;;;5.80;2.80;;;;;;;;;;4981723;28;20047;-66
2022/02/27 14:04:26;;;;;;;6.40;3.88;;;;;;;;;;4983251;28;20054;-66
2022/02/27 14:06:52;;;;;;;4.72;3.40;;;;;;;;;;4982047;28;20125;-66
2022/02/27 14:09:19;;;;;;;2.58;2.35;;;;;;;;;;4980647;28;20054;-68
2022/02/27 14:11:46;;;;;;;3.25;2.70;;;;;;;;;;4982165;28;20049;-67
2022/02/27 14:14:12;;;;;;;3.78;2.95;;;;;;;;;;4980364;28;20501;-67
2022/02/27 14:16:42;;;;;;;5.78;3.55;;;;;;;;;;4979079;28;20086;-67
2022/02/27 14:19:19;;;;;;;7.70;2.63;;;;;;;;;;4979842;28;20043;-66
2022/02/27 14:21:46;;;;;;;4.13;2.20;;;;;;;;;;4984637;28;20054;-66
2022/02/27 14:24:20;;;;;;;3.22;2.22;;;;;;;;;;4982370;28;20058;-67
2022/02/27 14:27:04;;;;;;;3.33;2.35;;;;;;;;;;4979118;28;20055;-67
2022/02/27 14:29:35;;;;;;;3.55;2.28;;;;;;;;;;4983254;28;20048;-66
2022/02/27 14:32:02;;;;;;;3.17;2.20;;;;;;;;;;4981608;28;20046;-67
2022/02/27 14:34:28;;;;;;;2.45;2.25;;;;;;;;;;4963028;28;20046;-66
2022/02/27 14:36:56;;;;;;;4.75;2.63;;;;;;;;;;4981930;28;20505;-67
2022/02/27 14:39:23;;;;;;;3.30;2.13;;;;;;;;;;4979939;28;20121;-67
2022/02/27 14:41:50;;;;;;;3.65;2.30;;;;;;;;;;4984173;28;20043;-70
2022/02/27 14:44:20;;;;;;;2.85;2.10;;;;;;;;;;4980697;28;20050;-74
2022/02/27 14:46:50;;;;;;;2.95;2.15;;;;;;;;;;4983366;28;20057;-72
2022/02/27 14:49:16;;;;;;;3.22;2.33;;;;;;;;;;4981885;28;20046;-73